Alagoinhas Airport


Codes: SDUO/QGS
Name: Alagoinhas Airport
City: Alagoinhas
Country: Brazil
Elevation: 568 ft.

Photos at Alagoinhas Airport


   Photos courtesy of SpottingLog. You can add your own sightings and photos by signing up for a free trial today.



No photos found.

Weather at Alagoinhas Airport


Time (UTC)DescriptionTempratureWindCloud coverageVisibilityPressureHumidity
23-May-2024 21:00Overcast Clouds26°C4 mph, SE88%10000m1015hPa65%
24-May-2024 00:00Broken Clouds23°C2 mph, SE63%10000m1017hPa78%
24-May-2024 03:00Clear Sky20°C2 mph, E7%10000m1017hPa90%
24-May-2024 06:00Few Clouds19°C0 mph, N15%10000m1016hPa91%
24-May-2024 09:00Few Clouds20°C0 mph, S12%10000m1017hPa86%
24-May-2024 12:00Clear Sky26°C4 mph, SE9%10000m1018hPa58%
24-May-2024 15:00Clear Sky30°C4 mph, SE0%10000m1015hPa45%
24-May-2024 18:00Clear Sky29°C9 mph, SE7%10000m1013hPa51%
24-May-2024 21:00Scattered Clouds22°C4 mph, SE26%10000m1016hPa80%
25-May-2024 00:00Few Clouds20°C2 mph, S14%10000m1017hPa92%
25-May-2024 03:00Clear Sky20°C2 mph, S0%10000m1017hPa95%
25-May-2024 06:00Clear Sky20°C0 mph, SW0%10000m1015hPa97%
25-May-2024 09:00Scattered Clouds21°C2 mph, SW34%10000m1016hPa95%
25-May-2024 12:00Scattered Clouds27°C4 mph, SE44%10000m1017hPa67%
25-May-2024 15:00Scattered Clouds30°C4 mph, S50%10000m1015hPa54%
25-May-2024 18:00Light Rain26°C7 mph, E62%10000m1014hPa83%
25-May-2024 21:00Light Rain22°C4 mph, E37%10000m1015hPa94%
26-May-2024 00:00Light Rain21°C4 mph, E21%10000m1017hPa97%
26-May-2024 03:00Clear Sky21°C2 mph, E7%10000m1017hPa96%
26-May-2024 06:00Clear Sky20°C2 mph, E5%10000m1015hPa96%
26-May-2024 09:00Clear Sky20°C0 mph, E5%10000m1017hPa95%
26-May-2024 12:00Light Rain26°C4 mph, SE11%10000m1019hPa73%
26-May-2024 15:00Scattered Clouds30°C7 mph, SE41%10000m1016hPa49%
26-May-2024 18:00Broken Clouds28°C9 mph, SE69%10000m1014hPa58%
26-May-2024 21:00Broken Clouds22°C4 mph, SE76%10000m1016hPa86%
27-May-2024 00:00Broken Clouds21°C4 mph, SE51%10000m1018hPa96%
27-May-2024 03:00Scattered Clouds20°C2 mph, SE33%10000m1017hPa96%
27-May-2024 06:00Scattered Clouds20°C2 mph, S31%10000m1016hPa97%
27-May-2024 09:00Scattered Clouds21°C2 mph, S45%10000m1017hPa93%
27-May-2024 12:00Light Rain25°C9 mph, SE57%10000m1019hPa78%
27-May-2024 15:00Light Rain28°C9 mph, S32%10000m1017hPa53%
27-May-2024 18:00Broken Clouds28°C9 mph, SE69%10000m1015hPa56%
27-May-2024 21:00Overcast Clouds21°C4 mph, SE100%10000m1017hPa82%
28-May-2024 00:00Broken Clouds19°C2 mph, S58%10000m1019hPa87%
28-May-2024 03:00Scattered Clouds21°C2 mph, S42%10000m1018hPa82%
28-May-2024 06:00Broken Clouds19°C2 mph, SW66%10000m1016hPa93%
28-May-2024 09:00Light Rain21°C2 mph, SW100%10000m1018hPa89%
28-May-2024 12:00Overcast Clouds25°C4 mph, S92%10000m1019hPa75%
28-May-2024 15:00Few Clouds30°C4 mph, SE22%10000m1016hPa50%
28-May-2024 18:00Broken Clouds27°C4 mph, SE54%10000m1014hPa67%